sensor_id;sensor_type;location;lat;lon;timestamp;temperature;humidity
32614;DHT22;19031;51.400;6.770;2023-07-13T00:00:36;17.80;99.90
32614;DHT22;19031;51.400;6.770;2023-07-13T00:03:02;17.80;99.90
32614;DHT22;19031;51.400;6.770;2023-07-13T00:05:28;17.70;99.90
32614;DHT22;19031;51.400;6.770;2023-07-13T00:07:53;17.70;99.90
32614;DHT22;19031;51.400;6.770;2023-07-13T00:10:20;17.70;99.90
32614;DHT22;19031;51.400;6.770;2023-07-13T00:12:45;17.80;99.90
32614;DHT22;19031;51.400;6.770;2023-07-13T00:15:12;17.70;99.90
32614;DHT22;19031;51.400;6.770;2023-07-13T00:17:39;17.70;99.90
32614;DHT22;19031;51.400;6.770;2023-07-13T00:20:05;17.70;99.90
32614;DHT22;19031;51.400;6.770;2023-07-13T00:22:31;17.70;99.90
32614;DHT22;19031;51.400;6.770;2023-07-13T00:24:56;17.70;99.90
32614;DHT22;19031;51.400;6.770;2023-07-13T00:27:22;17.70;99.90
32614;DHT22;19031;51.400;6.770;2023-07-13T00:29:47;17.60;99.90
32614;DHT22;19031;51.400;6.770;2023-07-13T00:32:13;17.60;99.90
32614;DHT22;19031;51.400;6.770;2023-07-13T00:34:38;17.60;99.90
32614;DHT22;19031;51.400;6.770;2023-07-13T00:37:04;17.60;99.90
32614;DHT22;19031;51.400;6.770;2023-07-13T00:39:32;17.50;99.90
32614;DHT22;19031;51.400;6.770;2023-07-13T00:41:57;17.60;99.90
32614;DHT22;19031;51.400;6.770;2023-07-13T00:44:23;17.50;99.90
32614;DHT22;19031;51.400;6.770;2023-07-13T00:46:49;17.50;99.90
32614;DHT22;19031;51.400;6.770;2023-07-13T00:49:15;17.60;99.90
32614;DHT22;19031;51.400;6.770;2023-07-13T00:51:43;17.60;99.90
32614;DHT22;19031;51.400;6.770;2023-07-13T00:54:14;17.50;99.90
32614;DHT22;19031;51.400;6.770;2023-07-13T00:56:41;17.50;99.90
32614;DHT22;19031;51.400;6.770;2023-07-13T00:59:08;17.40;99.90
32614;DHT22;19031;51.400;6.770;2023-07-13T01:01:35;17.40;99.90
32614;DHT22;19031;51.400;6.770;2023-07-13T01:04:02;17.30;99.90
32614;DHT22;19031;51.400;6.770;2023-07-13T01:06:28;17.30;99.90
32614;DHT22;19031;51.400;6.770;2023-07-13T01:08:54;17.20;99.90
32614;DHT22;19031;51.400;6.770;2023-07-13T01:11:20;17.10;99.90
32614;DHT22;19031;51.400;6.770;2023-07-13T01:13:47;17.10;99.90
32614;DHT22;19031;51.400;6.770;2023-07-13T01:16:15;17.10;99.90
32614;DHT22;19031;51.400;6.770;2023-07-13T01:18:42;17.10;99.90
32614;DHT22;19031;51.400;6.770;2023-07-13T01:21:07;17.00;99.90
32614;DHT22;19031;51.400;6.770;2023-07-13T01:23:33;17.00;99.90
32614;DHT22;19031;51.400;6.770;2023-07-13T01:25:58;16.90;99.90
32614;DHT22;19031;51.400;6.770;2023-07-13T01:28:24;16.90;99.90
32614;DHT22;19031;51.400;6.770;2023-07-13T01:30:53;16.90;99.90
32614;DHT22;19031;51.400;6.770;2023-07-13T01:33:19;16.80;99.90
32614;DHT22;19031;51.400;6.770;2023-07-13T01:35:45;16.80;99.90
32614;DHT22;19031;51.400;6.770;2023-07-13T01:38:11;16.70;99.90
32614;DHT22;19031;51.400;6.770;2023-07-13T01:40:37;16.70;99.90
32614;DHT22;19031;51.400;6.770;2023-07-13T01:43:03;16.70;99.90
32614;DHT22;19031;51.400;6.770;2023-07-13T01:45:29;16.70;99.90
32614;DHT22;19031;51.400;6.770;2023-07-13T01:47:54;16.60;99.90
32614;DHT22;19031;51.400;6.770;2023-07-13T01:50:20;16.60;99.90
32614;DHT22;19031;51.400;6.770;2023-07-13T01:52:45;16.60;99.90
32614;DHT22;19031;51.400;6.770;2023-07-13T01:55:11;16.60;99.90
32614;DHT22;19031;51.400;6.770;2023-07-13T01:57:36;16.50;99.90
32614;DHT22;19031;51.400;6.770;2023-07-13T02:00:05;16.60;99.90
32614;DHT22;19031;51.400;6.770;2023-07-13T02:02:31;16.60;99.90
32614;DHT22;19031;51.400;6.770;2023-07-13T02:04:57;16.60;99.90
32614;DHT22;19031;51.400;6.770;2023-07-13T02:07:22;16.60;99.90
32614;DHT22;19031;51.400;6.770;2023-07-13T02:09:48;16.60;99.90
32614;DHT22;19031;51.400;6.770;2023-07-13T02:12:13;16.50;99.90
32614;DHT22;19031;51.400;6.770;2023-07-13T02:14:39;16.60;99.90
32614;DHT22;19031;51.400;6.770;2023-07-13T02:17:04;16.60;99.90
32614;DHT22;19031;51.400;6.770;2023-07-13T02:19:30;16.50;99.90
32614;DHT22;19031;51.400;6.770;2023-07-13T02:21:55;16.50;99.90
32614;DHT22;19031;51.400;6.770;2023-07-13T02:24:21;16.40;99.90
32614;DHT22;19031;51.400;6.770;2023-07-13T02:26:47;16.40;99.90
32614;DHT22;19031;51.400;6.770;2023-07-13T02:29:13;16.30;99.90
32614;DHT22;19031;51.400;6.770;2023-07-13T02:31:38;16.20;99.90
32614;DHT22;19031;51.400;6.770;2023-07-13T02:34:04;16.30;99.90
32614;DHT22;19031;51.400;6.770;2023-07-13T02:36:30;16.20;99.90
32614;DHT22;19031;51.400;6.770;2023-07-13T02:38:56;16.10;99.90
32614;DHT22;19031;51.400;6.770;2023-07-13T02:41:21;16.10;99.90
32614;DHT22;19031;51.400;6.770;2023-07-13T02:43:48;16.10;99.90
32614;DHT22;19031;51.400;6.770;2023-07-13T02:46:13;16.10;99.90
32614;DHT22;19031;51.400;6.770;2023-07-13T02:48:39;16.00;99.90
32614;DHT22;19031;51.400;6.770;2023-07-13T02:51:04;16.00;99.90
32614;DHT22;19031;51.400;6.770;2023-07-13T02:53:30;16.00;99.90
32614;DHT22;19031;51.400;6.770;2023-07-13T02:55:56;15.90;99.90
32614;DHT22;19031;51.400;6.770;2023-07-13T02:58:21;15.90;99.90
32614;DHT22;19031;51.400;6.770;2023-07-13T03:00:47;15.90;99.90
32614;DHT22;19031;51.400;6.770;2023-07-13T03:03:13;15.90;99.90
32614;DHT22;19031;51.400;6.770;2023-07-13T03:05:39;16.00;99.90
32614;DHT22;19031;51.400;6.770;2023-07-13T03:08:05;15.90;99.90
32614;DHT22;19031;51.400;6.770;2023-07-13T03:10:31;15.90;99.90
32614;DHT22;19031;51.400;6.770;2023-07-13T03:12:57;15.80;99.90
32614;DHT22;19031;51.400;6.770;2023-07-13T03:15:22;15.80;99.90
32614;DHT22;19031;51.400;6.770;2023-07-13T03:17:47;15.80;99.90
32614;DHT22;19031;51.400;6.770;2023-07-13T03:20:13;15.80;99.90
32614;DHT22;19031;51.400;6.770;2023-07-13T03:22:39;15.70;99.90
32614;DHT22;19031;51.400;6.770;2023-07-13T03:25:04;15.70;99.90
32614;DHT22;19031;51.400;6.770;2023-07-13T03:27:30;15.70;99.90
32614;DHT22;19031;51.400;6.770;2023-07-13T03:29:56;15.70;99.90
32614;DHT22;19031;51.400;6.770;2023-07-13T03:32:21;15.50;99.90
32614;DHT22;19031;51.400;6.770;2023-07-13T03:34:47;15.60;99.90
32614;DHT22;19031;51.400;6.770;2023-07-13T03:37:13;15.60;99.90
32614;DHT22;19031;51.400;6.770;2023-07-13T03:39:38;15.60;99.90
32614;DHT22;19031;51.400;6.770;2023-07-13T03:42:04;15.50;99.90
32614;DHT22;19031;51.400;6.770;2023-07-13T03:44:29;15.50;99.90
32614;DHT22;19031;51.400;6.770;2023-07-13T03:46:55;15.60;99.90
32614;DHT22;19031;51.400;6.770;2023-07-13T03:49:20;15.60;99.90
32614;DHT22;19031;51.400;6.770;2023-07-13T03:51:46;15.60;99.90
32614;DHT22;19031;51.400;6.770;2023-07-13T03:54:12;15.60;99.90
32614;DHT22;19031;51.400;6.770;2023-07-13T03:56:37;15.60;99.90
32614;DHT22;19031;51.400;6.770;2023-07-13T03:59:03;15.60;99.90
32614;DHT22;19031;51.400;6.770;2023-07-13T04:01:28;15.50;99.90
32614;DHT22;19031;51.400;6.770;2023-07-13T04:03:54;15.70;99.90
32614;DHT22;19031;51.400;6.770;2023-07-13T04:06:23;15.60;99.90
32614;DHT22;19031;51.400;6.770;2023-07-13T04:08:51;15.70;99.90
32614;DHT22;19031;51.400;6.770;2023-07-13T04:11:17;15.80;99.90
32614;DHT22;19031;51.400;6.770;2023-07-13T04:13:43;15.90;99.90
32614;DHT22;19031;51.400;6.770;2023-07-13T04:16:09;16.00;99.90
32614;DHT22;19031;51.400;6.770;2023-07-13T04:18:35;16.10;99.90
32614;DHT22;19031;51.400;6.770;2023-07-13T04:21:00;16.20;99.90
32614;DHT22;19031;51.400;6.770;2023-07-13T04:23:26;16.30;99.90
32614;DHT22;19031;51.400;6.770;2023-07-13T04:25:52;16.40;99.90
32614;DHT22;19031;51.400;6.770;2023-07-13T04:28:19;16.50;99.90
32614;DHT22;19031;51.400;6.770;2023-07-13T04:30:44;16.50;99.90
32614;DHT22;19031;51.400;6.770;2023-07-13T04:33:10;16.60;99.90
32614;DHT22;19031;51.400;6.770;2023-07-13T04:35:35;16.60;99.90
32614;DHT22;19031;51.400;6.770;2023-07-13T04:38:02;16.70;99.90
32614;DHT22;19031;51.400;6.770;2023-07-13T04:40:27;16.80;99.90
32614;DHT22;19031;51.400;6.770;2023-07-13T04:42:53;16.80;99.90
32614;DHT22;19031;51.400;6.770;2023-07-13T04:45:19;16.80;99.90
32614;DHT22;19031;51.400;6.770;2023-07-13T04:47:44;16.90;99.90
32614;DHT22;19031;51.400;6.770;2023-07-13T04:50:12;16.80;99.90
32614;DHT22;19031;51.400;6.770;2023-07-13T04:52:40;17.00;99.90
32614;DHT22;19031;51.400;6.770;2023-07-13T04:55:07;17.00;99.90
32614;DHT22;19031;51.400;6.770;2023-07-13T04:57:32;17.00;99.90
32614;DHT22;19031;51.400;6.770;2023-07-13T04:59:58;17.10;99.90
32614;DHT22;19031;51.400;6.770;2023-07-13T05:02:26;17.10;99.90
32614;DHT22;19031;51.400;6.770;2023-07-13T05:04:53;17.00;99.90
32614;DHT22;19031;51.400;6.770;2023-07-13T05:07:18;17.00;99.90
32614;DHT22;19031;51.400;6.770;2023-07-13T05:09:44;17.00;99.90
32614;DHT22;19031;51.400;6.770;2023-07-13T05:12:09;17.20;99.90
32614;DHT22;19031;51.400;6.770;2023-07-13T05:14:35;17.20;99.90
32614;DHT22;19031;51.400;6.770;2023-07-13T05:17:00;17.30;99.90
32614;DHT22;19031;51.400;6.770;2023-07-13T05:19:26;17.30;99.90
32614;DHT22;19031;51.400;6.770;2023-07-13T05:21:52;17.40;99.90
32614;DHT22;19031;51.400;6.770;2023-07-13T05:24:17;17.50;99.90
32614;DHT22;19031;51.400;6.770;2023-07-13T05:26:43;17.50;99.90
32614;DHT22;19031;51.400;6.770;2023-07-13T05:29:09;17.60;99.90
32614;DHT22;19031;51.400;6.770;2023-07-13T05:31:34;17.70;99.90
32614;DHT22;19031;51.400;6.770;2023-07-13T05:34:00;17.70;99.90
32614;DHT22;19031;51.400;6.770;2023-07-13T05:36:26;17.90;99.90
32614;DHT22;19031;51.400;6.770;2023-07-13T05:38:51;17.80;99.90
32614;DHT22;19031;51.400;6.770;2023-07-13T05:41:17;17.90;99.90
32614;DHT22;19031;51.400;6.770;2023-07-13T05:43:42;18.00;99.90
32614;DHT22;19031;51.400;6.770;2023-07-13T05:46:07;17.70;99.90
32614;DHT22;19031;51.400;6.770;2023-07-13T05:48:33;17.60;99.90
32614;DHT22;19031;51.400;6.770;2023-07-13T05:50:58;17.60;99.90
32614;DHT22;19031;51.400;6.770;2023-07-13T05:53:24;17.60;99.90
32614;DHT22;19031;51.400;6.770;2023-07-13T05:55:49;17.60;99.90
32614;DHT22;19031;51.400;6.770;2023-07-13T05:58:16;17.70;99.90
32614;DHT22;19031;51.400;6.770;2023-07-13T06:00:42;17.80;99.90
32614;DHT22;19031;51.400;6.770;2023-07-13T06:03:07;17.80;99.90
32614;DHT22;19031;51.400;6.770;2023-07-13T06:05:33;18.00;99.90
32614;DHT22;19031;51.400;6.770;2023-07-13T06:07:59;18.20;99.90
32614;DHT22;19031;51.400;6.770;2023-07-13T06:10:25;18.30;99.90
32614;DHT22;19031;51.400;6.770;2023-07-13T06:12:51;18.40;99.90
32614;DHT22;19031;51.400;6.770;2023-07-13T06:15:16;18.60;99.90
32614;DHT22;19031;51.400;6.770;2023-07-13T06:17:42;18.80;99.90
32614;DHT22;19031;51.400;6.770;2023-07-13T06:20:07;19.00;99.90
32614;DHT22;19031;51.400;6.770;2023-07-13T06:22:33;19.10;99.90
32614;DHT22;19031;51.400;6.770;2023-07-13T06:24:58;19.10;99.90
32614;DHT22;19031;51.400;6.770;2023-07-13T06:27:24;19.20;99.90
32614;DHT22;19031;51.400;6.770;2023-07-13T06:29:49;19.20;99.90
32614;DHT22;19031;51.400;6.770;2023-07-13T06:32:15;19.30;99.90
32614;DHT22;19031;51.400;6.770;2023-07-13T06:34:40;19.40;99.90
32614;DHT22;19031;51.400;6.770;2023-07-13T06:37:06;19.50;99.90
32614;DHT22;19031;51.400;6.770;2023-07-13T06:39:32;19.50;99.90
32614;DHT22;19031;51.400;6.770;2023-07-13T06:41:57;19.60;99.90
32614;DHT22;19031;51.400;6.770;2023-07-13T06:44:23;19.70;99.90
32614;DHT22;19031;51.400;6.770;2023-07-13T06:46:48;20.00;99.90
32614;DHT22;19031;51.400;6.770;2023-07-13T06:49:14;20.40;99.90
32614;DHT22;19031;51.400;6.770;2023-07-13T06:51:39;20.60;99.90
32614;DHT22;19031;51.400;6.770;2023-07-13T06:54:05;20.50;99.90
32614;DHT22;19031;51.400;6.770;2023-07-13T06:56:30;20.30;99.90
32614;DHT22;19031;51.400;6.770;2023-07-13T06:58:55;20.20;99.90
32614;DHT22;19031;51.400;6.770;2023-07-13T07:01:21;20.00;99.90
32614;DHT22;19031;51.400;6.770;2023-07-13T07:03:46;20.00;99.90
32614;DHT22;19031;51.400;6.770;2023-07-13T07:06:14;19.90;99.90
32614;DHT22;19031;51.400;6.770;2023-07-13T07:08:40;19.80;99.90
32614;DHT22;19031;51.400;6.770;2023-07-13T07:11:07;19.70;99.90
32614;DHT22;19031;51.400;6.770;2023-07-13T07:13:33;19.70;99.90
32614;DHT22;19031;51.400;6.770;2023-07-13T07:15:59;19.80;99.90
32614;DHT22;19031;51.400;6.770;2023-07-13T07:18:25;19.80;99.90
32614;DHT22;19031;51.400;6.770;2023-07-13T07:20:50;19.80;99.90
32614;DHT22;19031;51.400;6.770;2023-07-13T07:23:16;19.80;99.90
32614;DHT22;19031;51.400;6.770;2023-07-13T07:25:43;19.90;99.90
32614;DHT22;19031;51.400;6.770;2023-07-13T07:28:08;20.00;99.90
32614;DHT22;19031;51.400;6.770;2023-07-13T07:30:36;20.00;99.90
32614;DHT22;19031;51.400;6.770;2023-07-13T07:33:03;19.90;99.90
32614;DHT22;19031;51.400;6.770;2023-07-13T07:35:28;20.00;99.90
32614;DHT22;19031;51.400;6.770;2023-07-13T07:37:54;20.10;99.90
32614;DHT22;19031;51.400;6.770;2023-07-13T07:40:19;20.00;99.90
32614;DHT22;19031;51.400;6.770;2023-07-13T07:42:45;20.10;99.90
32614;DHT22;19031;51.400;6.770;2023-07-13T07:45:10;20.10;99.90
32614;DHT22;19031;51.400;6.770;2023-07-13T07:47:37;20.10;99.90
32614;DHT22;19031;51.400;6.770;2023-07-13T07:50:02;20.40;99.90
32614;DHT22;19031;51.400;6.770;2023-07-13T07:52:28;20.40;99.90
32614;DHT22;19031;51.400;6.770;2023-07-13T07:54:53;20.50;99.90
32614;DHT22;19031;51.400;6.770;2023-07-13T07:57:19;20.50;99.90
32614;DHT22;19031;51.400;6.770;2023-07-13T07:59:44;20.40;99.90
32614;DHT22;19031;51.400;6.770;2023-07-13T08:02:10;20.70;99.90
32614;DHT22;19031;51.400;6.770;2023-07-13T08:04:36;20.90;99.90
32614;DHT22;19031;51.400;6.770;2023-07-13T08:07:01;21.00;99.90
32614;DHT22;19031;51.400;6.770;2023-07-13T08:09:28;21.00;99.90
32614;DHT22;19031;51.400;6.770;2023-07-13T08:11:54;21.00;99.90
32614;DHT22;19031;51.400;6.770;2023-07-13T08:14:20;20.90;99.90
32614;DHT22;19031;51.400;6.770;2023-07-13T08:16:45;21.00;99.90
32614;DHT22;19031;51.400;6.770;2023-07-13T08:19:11;21.10;99.90
32614;DHT22;19031;51.400;6.770;2023-07-13T08:21:36;21.40;99.90
32614;DHT22;19031;51.400;6.770;2023-07-13T08:24:02;21.80;99.90
32614;DHT22;19031;51.400;6.770;2023-07-13T08:26:27;22.30;99.90
32614;DHT22;19031;51.400;6.770;2023-07-13T08:28:53;22.60;99.90
32614;DHT22;19031;51.400;6.770;2023-07-13T08:31:18;23.00;99.90
32614;DHT22;19031;51.400;6.770;2023-07-13T08:33:44;23.20;99.90
32614;DHT22;19031;51.400;6.770;2023-07-13T08:36:10;23.30;99.90
32614;DHT22;19031;51.400;6.770;2023-07-13T08:38:35;23.20;99.90
32614;DHT22;19031;51.400;6.770;2023-07-13T08:41:03;23.30;99.90
32614;DHT22;19031;51.400;6.770;2023-07-13T08:43:35;23.30;99.90
32614;DHT22;19031;51.400;6.770;2023-07-13T08:48:33;23.10;99.90
32614;DHT22;19031;51.400;6.770;2023-07-13T08:51:20;23.00;99.90
32614;DHT22;19031;51.400;6.770;2023-07-13T08:53:49;23.20;99.90
32614;DHT22;19031;51.400;6.770;2023-07-13T08:56:19;23.20;99.90
32614;DHT22;19031;51.400;6.770;2023-07-13T08:58:46;23.30;99.90
32614;DHT22;19031;51.400;6.770;2023-07-13T09:03:40;23.10;99.90
32614;DHT22;19031;51.400;6.770;2023-07-13T09:06:07;23.20;99.90
32614;DHT22;19031;51.400;6.770;2023-07-13T09:11:13;23.10;99.90
32614;DHT22;19031;51.400;6.770;2023-07-13T09:13:41;22.90;99.90
32614;DHT22;19031;51.400;6.770;2023-07-13T09:16:10;23.00;99.90
32614;DHT22;19031;51.400;6.770;2023-07-13T09:18:47;22.80;99.90
32614;DHT22;19031;51.400;6.770;2023-07-13T09:21:34;22.60;99.90
32614;DHT22;19031;51.400;6.770;2023-07-13T09:26:45;22.80;99.90
32614;DHT22;19031;51.400;6.770;2023-07-13T09:29:13;22.70;99.90
32614;DHT22;19031;51.400;6.770;2023-07-13T09:31:42;22.70;99.90
32614;DHT22;19031;51.400;6.770;2023-07-13T09:34:09;22.50;99.90
32614;DHT22;19031;51.400;6.770;2023-07-13T09:36:35;22.60;99.90
32614;DHT22;19031;51.400;6.770;2023-07-13T09:41:47;22.50;99.90
32614;DHT22;19031;51.400;6.770;2023-07-13T09:44:16;22.70;99.90
32614;DHT22;19031;51.400;6.770;2023-07-13T09:46:45;22.90;99.90
32614;DHT22;19031;51.400;6.770;2023-07-13T09:49:11;23.20;99.90
32614;DHT22;19031;51.400;6.770;2023-07-13T09:51:37;23.30;99.90
32614;DHT22;19031;51.400;6.770;2023-07-13T09:54:04;23.40;99.90
32614;DHT22;19031;51.400;6.770;2023-07-13T09:56:30;23.40;99.90
32614;DHT22;19031;51.400;6.770;2023-07-13T09:58:57;23.30;99.90
32614;DHT22;19031;51.400;6.770;2023-07-13T10:01:33;22.80;99.90
32614;DHT22;19031;51.400;6.770;2023-07-13T10:03:59;22.80;99.90
32614;DHT22;19031;51.400;6.770;2023-07-13T10:06:24;22.60;99.90
32614;DHT22;19031;51.400;6.770;2023-07-13T10:08:52;22.80;99.90
32614;DHT22;19031;51.400;6.770;2023-07-13T10:13:51;23.40;99.90
32614;DHT22;19031;51.400;6.770;2023-07-13T10:16:18;23.80;99.90
32614;DHT22;19031;51.400;6.770;2023-07-13T10:18:50;23.80;99.90
32614;DHT22;19031;51.400;6.770;2023-07-13T10:21:18;23.80;99.90
32614;DHT22;19031;51.400;6.770;2023-07-13T10:23:45;23.80;99.90
32614;DHT22;19031;51.400;6.770;2023-07-13T10:26:15;23.90;99.90
32614;DHT22;19031;51.400;6.770;2023-07-13T10:28:42;23.80;99.90
32614;DHT22;19031;51.400;6.770;2023-07-13T10:31:12;23.80;99.90
32614;DHT22;19031;51.400;6.770;2023-07-13T10:33:38;23.70;99.90
32614;DHT22;19031;51.400;6.770;2023-07-13T10:36:11;23.80;99.90
32614;DHT22;19031;51.400;6.770;2023-07-13T10:38:37;23.80;99.90
32614;DHT22;19031;51.400;6.770;2023-07-13T10:41:04;24.10;99.90
32614;DHT22;19031;51.400;6.770;2023-07-13T10:43:34;24.40;99.90
32614;DHT22;19031;51.400;6.770;2023-07-13T10:46:02;24.50;99.90
32614;DHT22;19031;51.400;6.770;2023-07-13T10:48:29;24.30;99.90
32614;DHT22;19031;51.400;6.770;2023-07-13T10:50:57;24.50;99.90
32614;DHT22;19031;51.400;6.770;2023-07-13T10:53:32;25.10;99.90
32614;DHT22;19031;51.400;6.770;2023-07-13T10:56:00;25.70;99.50
32614;DHT22;19031;51.400;6.770;2023-07-13T10:58:33;25.70;98.80
32614;DHT22;19031;51.400;6.770;2023-07-13T11:01:13;25.60;98.50
32614;DHT22;19031;51.400;6.770;2023-07-13T11:06:11;25.30;98.80
32614;DHT22;19031;51.400;6.770;2023-07-13T11:11:31;25.90;98.90
32614;DHT22;19031;51.400;6.770;2023-07-13T11:18:50;27.60;95.10
32614;DHT22;19031;51.400;6.770;2023-07-13T11:21:19;27.90;93.90
32614;DHT22;19031;51.400;6.770;2023-07-13T11:23:51;28.10;92.70
32614;DHT22;19031;51.400;6.770;2023-07-13T11:29:07;29.00;90.00
32614;DHT22;19031;51.400;6.770;2023-07-13T11:31:33;28.80;83.30
32614;DHT22;19031;51.400;6.770;2023-07-13T11:33:59;29.40;81.80
32614;DHT22;19031;51.400;6.770;2023-07-13T11:36:29;30.00;81.10
32614;DHT22;19031;51.400;6.770;2023-07-13T11:39:04;30.20;75.60
32614;DHT22;19031;51.400;6.770;2023-07-13T11:41:32;29.70;76.90
32614;DHT22;19031;51.400;6.770;2023-07-13T11:44:33;29.70;75.20
32614;DHT22;19031;51.400;6.770;2023-07-13T11:46:52;29.20;77.20
32614;DHT22;19031;51.400;6.770;2023-07-13T11:49:19;29.50;76.40
32614;DHT22;19031;51.400;6.770;2023-07-13T11:51:45;30.00;76.30
32614;DHT22;19031;51.400;6.770;2023-07-13T11:54:32;30.10;71.00
32614;DHT22;19031;51.400;6.770;2023-07-13T11:56:58;30.10;70.30
32614;DHT22;19031;51.400;6.770;2023-07-13T11:59:26;29.70;69.20
32614;DHT22;19031;51.400;6.770;2023-07-13T12:01:53;29.00;70.40
32614;DHT22;19031;51.400;6.770;2023-07-13T12:04:28;29.00;70.80
32614;DHT22;19031;51.400;6.770;2023-07-13T12:07:07;29.30;73.80
32614;DHT22;19031;51.400;6.770;2023-07-13T12:09:34;29.30;70.80
32614;DHT22;19031;51.400;6.770;2023-07-13T12:12:02;28.80;71.30
32614;DHT22;19031;51.400;6.770;2023-07-13T12:14:27;28.60;72.80
32614;DHT22;19031;51.400;6.770;2023-07-13T12:16:53;28.20;71.50
32614;DHT22;19031;51.400;6.770;2023-07-13T12:19:28;28.10;72.00
32614;DHT22;19031;51.400;6.770;2023-07-13T12:21:55;27.90;75.40
32614;DHT22;19031;51.400;6.770;2023-07-13T12:24:21;27.60;74.20
32614;DHT22;19031;51.400;6.770;2023-07-13T12:26:58;27.70;75.80
32614;DHT22;19031;51.400;6.770;2023-07-13T12:29:24;27.80;76.80
32614;DHT22;19031;51.400;6.770;2023-07-13T12:31:50;27.80;74.70
32614;DHT22;19031;51.400;6.770;2023-07-13T12:34:21;27.60;74.10
32614;DHT22;19031;51.400;6.770;2023-07-13T12:39:33;27.00;75.40
32614;DHT22;19031;51.400;6.770;2023-07-13T12:45:12;26.10;77.40
32614;DHT22;19031;51.400;6.770;2023-07-13T12:47:42;25.60;79.50
32614;DHT22;19031;51.400;6.770;2023-07-13T12:50:12;25.20;81.00
32614;DHT22;19031;51.400;6.770;2023-07-13T12:52:39;24.90;82.60
32614;DHT22;19031;51.400;6.770;2023-07-13T12:55:17;24.40;83.70
32614;DHT22;19031;51.400;6.770;2023-07-13T12:57:53;24.20;85.90
32614;DHT22;19031;51.400;6.770;2023-07-13T13:00:23;23.90;87.70
32614;DHT22;19031;51.400;6.770;2023-07-13T13:02:50;23.50;97.30
32614;DHT22;19031;51.400;6.770;2023-07-13T13:05:16;23.00;99.90
32614;DHT22;19031;51.400;6.770;2023-07-13T13:07:42;22.70;99.90
32614;DHT22;19031;51.400;6.770;2023-07-13T13:10:13;22.80;99.90
32614;DHT22;19031;51.400;6.770;2023-07-13T13:12:39;22.80;99.90
32614;DHT22;19031;51.400;6.770;2023-07-13T13:15:08;23.10;99.90
32614;DHT22;19031;51.400;6.770;2023-07-13T13:17:33;23.60;99.90
32614;DHT22;19031;51.400;6.770;2023-07-13T13:19:59;24.20;99.90
32614;DHT22;19031;51.400;6.770;2023-07-13T13:24:59;25.40;99.90
32614;DHT22;19031;51.400;6.770;2023-07-13T13:27:24;26.10;99.30
32614;DHT22;19031;51.400;6.770;2023-07-13T13:29:50;26.80;97.00
32614;DHT22;19031;51.400;6.770;2023-07-13T13:32:17;27.20;94.50
32614;DHT22;19031;51.400;6.770;2023-07-13T13:34:44;27.30;93.40
32614;DHT22;19031;51.400;6.770;2023-07-13T13:37:16;27.50;92.80
32614;DHT22;19031;51.400;6.770;2023-07-13T13:39:43;27.40;91.70
32614;DHT22;19031;51.400;6.770;2023-07-13T13:42:09;27.30;91.30
32614;DHT22;19031;51.400;6.770;2023-07-13T13:44:34;27.00;89.80
32614;DHT22;19031;51.400;6.770;2023-07-13T13:47:00;26.60;90.40
32614;DHT22;19031;51.400;6.770;2023-07-13T13:49:26;26.20;91.30
32614;DHT22;19031;51.400;6.770;2023-07-13T13:51:52;26.30;92.20
32614;DHT22;19031;51.400;6.770;2023-07-13T13:54:19;26.10;91.70
32614;DHT22;19031;51.400;6.770;2023-07-13T13:56:46;25.90;93.10
32614;DHT22;19031;51.400;6.770;2023-07-13T13:59:12;26.30;92.70
32614;DHT22;19031;51.400;6.770;2023-07-13T14:01:38;26.50;91.60
32614;DHT22;19031;51.400;6.770;2023-07-13T14:04:06;26.80;90.60
32614;DHT22;19031;51.400;6.770;2023-07-13T14:06:34;27.00;89.10
32614;DHT22;19031;51.400;6.770;2023-07-13T14:09:00;27.20;90.50
32614;DHT22;19031;51.400;6.770;2023-07-13T14:11:26;27.00;86.20
32614;DHT22;19031;51.400;6.770;2023-07-13T14:13:56;26.80;87.90
32614;DHT22;19031;51.400;6.770;2023-07-13T14:16:25;26.30;87.50
32614;DHT22;19031;51.400;6.770;2023-07-13T14:18:53;26.10;86.40
32614;DHT22;19031;51.400;6.770;2023-07-13T14:21:19;26.20;89.10
32614;DHT22;19031;51.400;6.770;2023-07-13T14:23:46;26.00;88.90
32614;DHT22;19031;51.400;6.770;2023-07-13T14:26:25;25.50;96.60
32614;DHT22;19031;51.400;6.770;2023-07-13T14:28:55;25.20;99.90
32614;DHT22;19031;51.400;6.770;2023-07-13T14:31:21;25.60;99.90
32614;DHT22;19031;51.400;6.770;2023-07-13T14:33:47;25.80;99.60
32614;DHT22;19031;51.400;6.770;2023-07-13T14:36:29;25.90;99.90
32614;DHT22;19031;51.400;6.770;2023-07-13T14:38:57;25.90;99.70
32614;DHT22;19031;51.400;6.770;2023-07-13T14:41:22;25.50;99.60
32614;DHT22;19031;51.400;6.770;2023-07-13T14:43:48;25.30;99.50
32614;DHT22;19031;51.400;6.770;2023-07-13T14:48:52;24.70;99.90
32614;DHT22;19031;51.400;6.770;2023-07-13T14:51:18;24.80;99.90
32614;DHT22;19031;51.400;6.770;2023-07-13T14:53:44;24.90;99.90
32614;DHT22;19031;51.400;6.770;2023-07-13T14:56:10;24.60;99.90
32614;DHT22;19031;51.400;6.770;2023-07-13T14:58:36;24.60;99.90
32614;DHT22;19031;51.400;6.770;2023-07-13T15:01:01;24.60;99.90
32614;DHT22;19031;51.400;6.770;2023-07-13T15:03:26;24.40;99.90
32614;DHT22;19031;51.400;6.770;2023-07-13T15:05:52;24.30;99.90
32614;DHT22;19031;51.400;6.770;2023-07-13T15:08:18;24.30;99.90
32614;DHT22;19031;51.400;6.770;2023-07-13T15:10:43;24.10;99.90
32614;DHT22;19031;51.400;6.770;2023-07-13T15:13:14;23.80;99.90
32614;DHT22;19031;51.400;6.770;2023-07-13T15:15:40;23.40;99.90
32614;DHT22;19031;51.400;6.770;2023-07-13T15:18:07;22.80;99.90
32614;DHT22;19031;51.400;6.770;2023-07-13T15:20:34;22.50;99.90
32614;DHT22;19031;51.400;6.770;2023-07-13T15:23:03;22.50;99.90
32614;DHT22;19031;51.400;6.770;2023-07-13T15:25:29;22.40;99.90
32614;DHT22;19031;51.400;6.770;2023-07-13T15:27:58;22.10;99.90
32614;DHT22;19031;51.400;6.770;2023-07-13T15:30:28;21.80;99.90
32614;DHT22;19031;51.400;6.770;2023-07-13T15:32:55;21.80;99.90
32614;DHT22;19031;51.400;6.770;2023-07-13T15:35:24;21.70;99.90
32614;DHT22;19031;51.400;6.770;2023-07-13T15:37:49;21.60;99.90
32614;DHT22;19031;51.400;6.770;2023-07-13T15:40:15;21.80;99.90
32614;DHT22;19031;51.400;6.770;2023-07-13T15:42:41;21.60;99.90
32614;DHT22;19031;51.400;6.770;2023-07-13T15:45:13;21.60;99.90
32614;DHT22;19031;51.400;6.770;2023-07-13T15:47:39;21.70;99.90
32614;DHT22;19031;51.400;6.770;2023-07-13T15:50:05;21.60;99.90
32614;DHT22;19031;51.400;6.770;2023-07-13T15:52:30;21.70;99.90
32614;DHT22;19031;51.400;6.770;2023-07-13T15:54:57;21.90;99.90
32614;DHT22;19031;51.400;6.770;2023-07-13T15:57:24;21.80;99.90
32614;DHT22;19031;51.400;6.770;2023-07-13T15:59:50;21.70;99.90
32614;DHT22;19031;51.400;6.770;2023-07-13T16:02:19;21.60;99.90
32614;DHT22;19031;51.400;6.770;2023-07-13T16:04:45;21.50;99.90
32614;DHT22;19031;51.400;6.770;2023-07-13T16:07:11;21.60;99.90